Time;durP1;ratioP1;P1;durP2;ratioP2;P2;SDS_P1;SDS_P2;PMS_P1;PMS_P2;Temp;Humidity;BMP_temperature;BMP_pressure;BME280_temperature;BME280_humidity;BME280_pressure;Samples;Min_cycle;Max_cycle;Signal;HPM_P1;HPM_P2
2021/08/09 00:00:10;;;;;;;7.97;1.60;;;;;;;26.72;51.75;100934.97;5011223;28;20049;-70
2021/08/09 00:02:39;;;;;;;6.82;1.77;;;;;;;26.70;51.63;100926.06;5010575;28;20042;-70
2021/08/09 00:05:07;;;;;;;6.80;1.92;;;;;;;26.67;51.92;100926.19;5011286;28;20046;-70
2021/08/09 00:07:34;;;;;;;3.75;1.50;;;;;;;26.66;51.90;100925.31;5011696;28;20507;-70
2021/08/09 00:10:02;;;;;;;4.45;1.10;;;;;;;26.66;52.12;100930.72;5010983;28;20121;-69
2021/08/09 00:12:29;;;;;;;4.50;1.55;;;;;;;26.66;51.80;100925.31;5011264;28;20061;-69
2021/08/09 00:14:56;;;;;;;4.68;1.20;;;;;;;26.67;51.66;100912.66;5010278;28;20085;-68
2021/08/09 00:17:24;;;;;;;3.97;1.25;;;;;;;26.67;51.55;100916.22;5011577;28;20034;-69
2021/08/09 00:19:53;;;;;;;5.82;1.30;;;;;;;26.66;51.35;100919.88;5010248;28;20048;-70
2021/08/09 00:22:20;;;;;;;4.50;1.48;;;;;;;26.69;50.93;100917.03;5009287;28;20049;-68
2021/08/09 00:24:47;;;;;;;5.65;1.52;;;;;;;26.70;51.33;100916.09;5009666;28;20038;-70
2021/08/09 00:27:15;;;;;;;5.18;1.60;;;;;;;26.71;51.12;100922.41;5010157;28;20045;-70
2021/08/09 00:29:42;;;;;;;3.45;1.35;;;;;;;26.70;51.15;100920.63;5010787;28;20056;-70
2021/08/09 00:32:09;;;;;;;2.85;1.45;;;;;;;26.66;51.69;100925.31;5009988;28;20046;-70
2021/08/09 00:34:38;;;;;;;4.75;1.30;;;;;;;26.66;51.80;100936.16;4999055;28;20056;-69
2021/08/09 00:37:07;;;;;;;6.78;1.45;;;;;;;26.68;51.58;100930.66;5010652;28;20038;-70
2021/08/09 00:39:34;;;;;;;8.82;1.75;;;;;;;26.67;51.88;100937.03;4997624;28;20049;-70
2021/08/09 00:42:02;;;;;;;5.90;1.83;;;;;;;26.69;51.68;100946.84;4996625;28;20046;-69
2021/08/09 00:44:29;;;;;;;3.22;1.50;;;;;;;26.66;51.87;100937.97;4994452;28;20062;-70
2021/08/09 00:46:56;;;;;;;4.18;1.48;;;;;;;26.64;51.90;100940.78;5009906;28;20048;-68
2021/08/09 00:49:24;;;;;;;2.60;1.58;;;;;;;26.65;52.25;100936.25;5011070;28;20065;-70
2021/08/09 00:51:52;;;;;;;5.50;1.75;;;;;;;26.62;52.38;100939.09;5010257;28;20042;-70
2021/08/09 00:54:21;;;;;;;5.18;1.67;;;;;;;26.62;52.47;100939.97;5010524;28;20076;-70
2021/08/09 00:56:48;;;;;;;3.92;1.48;;;;;;;26.59;52.47;100949.09;5008220;28;20504;-70
2021/08/09 00:59:16;;;;;;;6.05;1.92;;;;;;;26.57;52.54;100942.03;5009810;28;20042;-70
2021/08/09 01:01:44;;;;;;;4.95;1.58;;;;;;;26.57;52.60;100944.72;5009355;28;20515;-70
2021/08/09 01:04:11;;;;;;;7.18;1.70;;;;;;;26.61;52.62;100938.22;5004368;28;20126;-70
2021/08/09 01:06:39;;;;;;;7.35;1.70;;;;;;;26.58;52.41;100938.38;4993390;28;20385;-70
2021/08/09 01:09:14;;;;;;;4.43;1.40;;;;;;;26.54;52.47;100937.63;5010377;28;20049;-70
2021/08/09 01:11:48;;;;;;;5.47;1.27;;;;;;;26.52;52.20;100931.38;5008673;28;20038;-70
2021/08/09 01:14:27;;;;;;;3.70;1.73;;;;;;;26.49;52.34;100938.78;5010726;28;20046;-70
2021/08/09 01:16:57;;;;;;;5.97;1.65;;;;;;;26.47;52.27;100935.28;4983131;28;20062;-69
2021/08/09 01:19:40;;;;;;;8.30;1.45;;;;;;;26.48;52.67;100934.31;4990903;28;20046;-69
2021/08/09 01:22:12;;;;;;;3.45;1.73;;;;;;;26.48;53.03;100939.75;5002090;28;20060;-70
2021/08/09 01:24:48;;;;;;;4.93;1.40;;;;;;;26.49;53.02;100936.97;4990825;28;20038;-70
2021/08/09 01:27:26;;;;;;;9.23;1.42;;;;;;;26.51;52.91;100928.78;5006513;28;20037;-70
2021/08/09 01:29:58;;;;;;;4.57;1.30;;;;;;;26.45;53.32;100937.19;5010391;28;20556;-70
2021/08/09 01:32:28;;;;;;;4.68;1.40;;;;;;;26.44;53.39;100933.59;5009988;28;20046;-70
2021/08/09 01:34:58;;;;;;;6.63;1.42;;;;;;;26.45;53.35;100932.63;5010478;28;20061;-70
2021/08/09 01:37:29;;;;;;;7.38;2.05;;;;;;;26.46;53.51;100937.09;5010081;28;20038;-70
2021/08/09 01:40:37;;;;;;;5.03;1.60;;;;;;;26.49;53.84;100933.38;5005430;28;20555;-70
2021/08/09 01:43:07;;;;;;;7.28;1.83;;;;;;;26.48;54.00;100937.91;5010307;28;20511;-69
2021/08/09 01:45:35;;;;;;;6.95;1.80;;;;;;;26.49;54.54;100942.38;5010221;28;20400;-71
2021/08/09 01:48:03;;;;;;;7.82;1.60;;;;;;;26.51;54.33;100937.78;5009948;28;20042;-70
2021/08/09 01:50:31;;;;;;;7.93;1.63;;;;;;;26.52;54.42;100933.22;5009966;28;20038;-70
2021/08/09 01:52:59;;;;;;;7.50;1.50;;;;;;;26.53;55.06;100934.97;5009573;28;20514;-68
2021/08/09 01:55:27;;;;;;;5.25;1.85;;;;;;;26.48;55.62;100937.03;5010214;28;20044;-68
2021/08/09 01:57:55;;;;;;;6.45;1.98;;;;;;;26.47;55.51;100938.84;5009535;28;20514;-69
2021/08/09 02:00:24;;;;;;;3.40;1.48;;;;;;;26.45;55.82;100938.03;5009324;28;20482;-71
2021/08/09 02:03:11;;;;;;;5.00;1.40;;;;;;;26.42;56.00;100938.22;5108990;27;20414;-70
2021/08/09 02:05:38;;;;;;;2.80;1.70;;;;;;;26.40;55.95;100939.22;5091822;28;20102;-69
2021/08/09 02:08:07;;;;;;;4.05;1.50;;;;;;;26.41;55.72;100941.84;5088158;28;20052;-69
2021/08/09 02:10:34;;;;;;;7.93;1.63;;;;;;;26.41;55.74;100946.41;5106693;28;20415;-68
2021/08/09 02:13:08;;;;;;;4.75;1.70;;;;;;;26.35;56.49;100943.97;5096519;28;20071;-69
2021/08/09 02:15:43;;;;;;;7.90;1.90;;;;;;;26.32;56.63;100947.69;5107223;28;20051;-68
2021/08/09 02:18:22;;;;;;;6.32;1.85;;;;;;;26.30;56.95;100955.03;5088245;28;20408;-68
2021/08/09 02:20:55;;;;;;;5.65;1.88;;;;;;;26.30;57.33;100952.31;5109960;28;20044;-69
2021/08/09 02:23:25;;;;;;;4.38;1.42;;;;;;;26.28;57.13;100956.91;5116601;27;20051;-69
2021/08/09 02:25:55;;;;;;;6.03;1.73;;;;;;;26.26;57.20;100949.81;5117663;28;20055;-69
2021/08/09 02:28:28;;;;;;;6.28;1.98;;;;;;;26.29;57.50;100949.69;5094305;28;20051;-69
2021/08/09 02:31:00;;;;;;;6.75;1.85;;;;;;;26.30;57.57;100943.31;5089772;27;20129;-69
2021/08/09 02:33:31;;;;;;;7.15;2.08;;;;;;;26.34;57.71;100944.91;5109160;27;20047;-67
2021/08/09 02:36:01;;;;;;;7.68;1.80;;;;;;;26.32;58.15;100944.97;5127688;27;20043;-68
2021/08/09 02:38:31;;;;;;;4.38;2.05;;;;;;;26.33;58.04;100941.34;5125611;27;20066;-68
2021/08/09 02:40:59;;;;;;;6.07;1.90;;;;;;;26.29;58.17;100942.44;5115941;27;20525;-68
2021/08/09 02:43:28;;;;;;;4.43;1.48;;;;;;;26.27;57.77;100935.31;5087356;28;20033;-69
2021/08/09 02:45:59;;;;;;;5.82;1.58;;;;;;;26.32;57.47;100944.13;5091096;28;20123;-69
2021/08/09 02:48:28;;;;;;;9.75;1.70;;;;;;;26.31;57.19;100945.97;5115984;27;20039;-69
2021/08/09 02:50:57;;;;;;;4.88;1.58;;;;;;;26.28;57.70;100948.78;5107132;28;20048;-69
2021/08/09 02:53:26;;;;;;;4.15;1.50;;;;;;;26.26;57.53;100941.69;5109557;28;20514;-70
2021/08/09 02:55:57;;;;;;;7.20;1.70;;;;;;;26.25;57.51;100943.53;5088881;28;20048;-69
2021/08/09 02:58:25;;;;;;;4.75;1.70;;;;;;;26.22;57.52;100948.16;5109644;28;20089;-68
2021/08/09 03:00:55;;;;;;;4.72;1.70;;;;;;;26.20;57.48;100954.53;5121475;27;20096;-69
2021/08/09 03:03:24;;;;;;;5.18;1.52;;;;;;;26.17;56.74;100951.97;5106998;27;20036;-69
2021/08/09 03:05:54;;;;;;;6.40;1.88;;;;;;;26.15;56.04;100942.16;5106642;28;20060;-68
2021/08/09 03:08:24;;;;;;;8.30;1.67;;;;;;;26.16;55.32;100941.22;5110834;27;20046;-69
2021/08/09 03:10:52;;;;;;;7.20;1.30;;;;;;;26.11;54.98;100944.13;5124190;27;20035;-69
2021/08/09 03:13:24;;;;;;;4.20;1.50;;;;;;;26.12;54.66;100945.88;5099782;28;20085;-68
2021/08/09 03:15:53;;;;;;;7.93;1.70;;;;;;;26.11;54.55;100938.72;5108524;28;20403;-70
2021/08/09 03:18:20;;;;;;;4.32;1.58;;;;;;;26.15;53.88;100945.75;5093070;28;20131;-69
2021/08/09 03:20:48;;;;;;;4.93;1.40;;;;;;;26.14;53.66;100938.56;5094292;28;20564;-69
2021/08/09 03:23:16;;;;;;;5.50;1.40;;;;;;;26.15;53.18;100947.56;5101518;27;20115;-69
2021/08/09 03:25:45;;;;;;;7.30;1.70;;;;;;;26.16;52.48;100943.91;5094660;28;20063;-69
2021/08/09 03:28:12;;;;;;;3.58;1.50;;;;;;;26.15;52.64;100934.03;5105597;28;20040;-69
2021/08/09 03:30:40;;;;;;;3.08;1.40;;;;;;;26.17;52.51;100945.69;5113382;28;20031;-69
2021/08/09 03:33:08;;;;;;;7.55;1.70;;;;;;;26.20;52.23;100949.09;5109065;28;20027;-68
2021/08/09 03:35:35;;;;;;;4.85;1.63;;;;;;;26.19;52.65;100930.22;5103135;28;20539;-69
2021/08/09 03:38:03;;;;;;;6.15;1.60;;;;;;;26.25;52.73;100948.06;5113247;28;20042;-69
2021/08/09 03:40:30;;;;;;;6.82;1.75;;;;;;;26.30;52.36;100946.03;5113157;27;20131;-69
2021/08/09 03:43:00;;;;;;;3.60;1.40;;;;;;;26.38;52.08;100951.97;5095809;28;20047;-69
2021/08/09 03:45:27;;;;;;;5.03;1.67;;;;;;;26.48;52.08;100950.56;5103493;28;20127;-69
2021/08/09 03:47:55;;;;;;;5.65;1.55;;;;;;;26.55;51.94;100946.63;5095689;28;20047;-70
2021/08/09 03:50:23;;;;;;;3.78;1.40;;;;;;;26.66;52.15;100957.81;5092653;28;20044;-70
2021/08/09 03:52:52;;;;;;;5.55;1.70;;;;;;;26.75;52.09;100961.94;5093138;28;20136;-69
2021/08/09 03:55:20;;;;;;;3.80;1.45;;;;;;;26.81;51.95;100961.63;5112622;27;20043;-69
2021/08/09 03:57:48;;;;;;;5.90;1.70;;;;;;;26.91;52.23;100954.84;5109998;28;20048;-69
2021/08/09 04:00:17;;;;;;;3.63;1.42;;;;;;;27.01;52.33;100958.84;5099668;28;20040;-69
2021/08/09 04:02:45;;;;;;;5.40;1.40;;;;;;;27.11;52.10;100964.72;5092195;28;20153;-68
2021/08/09 04:05:13;;;;;;;4.03;1.70;;;;;;;27.21;51.64;100963.28;5091965;28;20040;-68
2021/08/09 04:07:41;;;;;;;5.38;1.50;;;;;;;27.32;51.61;100972.63;5093037;28;20036;-69
2021/08/09 04:10:09;;;;;;;4.13;1.27;;;;;;;27.43;51.68;100972.13;5110632;27;20047;-67
2021/08/09 04:12:37;;;;;;;3.17;1.20;;;;;;;27.56;51.78;100967.84;5108842;28;20036;-68
2021/08/09 04:15:06;;;;;;;3.58;1.17;;;;;;;27.69;51.27;100974.41;5107757;27;20040;-68
2021/08/09 04:17:36;;;;;;;2.85;1.05;;;;;;;27.82;50.37;100973.75;5092065;28;20047;-68
2021/08/09 04:20:04;;;;;;;3.55;1.50;;;;;;;27.95;49.73;100964.00;5091772;28;20040;-68
2021/08/09 04:22:31;;;;;;;5.60;1.70;;;;;;;28.07;49.58;100969.66;5105803;27;20112;-68
2021/08/09 04:25:01;;;;;;;3.85;1.30;;;;;;;28.20;49.37;100972.63;5110851;28;20040;-66
2021/08/09 04:27:28;;;;;;;4.90;1.30;;;;;;;28.34;49.31;100978.19;5101553;28;20046;-66
2021/08/09 04:29:56;;;;;;;3.63;1.70;;;;;;;28.47;48.66;100971.09;5094584;28;20051;-69
2021/08/09 04:32:24;;;;;;;4.43;1.45;;;;;;;28.60;48.64;100973.13;5103436;28;20067;-69
2021/08/09 04:34:53;;;;;;;5.88;1.15;;;;;;;28.75;48.64;100966.88;5106370;28;20101;-68
2021/08/09 04:37:22;;;;;;;3.45;1.27;;;;;;;28.88;48.71;100971.50;5108996;28;20050;-69
2021/08/09 04:39:50;;;;;;;4.68;1.10;;;;;;;29.04;48.50;100968.81;5112066;27;20032;-69
2021/08/09 04:42:18;;;;;;;2.40;1.25;;;;;;;29.18;48.29;100968.00;5105419;27;20059;-69
2021/08/09 04:44:45;;;;;;;4.93;1.38;;;;;;;29.36;47.82;100957.91;5103496;28;20491;-69
2021/08/09 04:47:13;;;;;;;4.38;1.30;;;;;;;29.52;47.81;100964.19;5112028;27;20036;-69
2021/08/09 04:49:42;;;;;;;3.15;1.17;;;;;;;29.67;47.61;100974.16;5106525;27;20036;-69
2021/08/09 04:52:11;;;;;;;9.50;1.10;;;;;;;29.84;47.49;100979.47;5098183;27;20035;-69
2021/08/09 04:54:38;;;;;;;2.63;1.13;;;;;;;30.01;47.19;100984.78;5104246;28;20427;-70
2021/08/09 04:57:06;;;;;;;3.55;1.20;;;;;;;30.10;46.73;100984.22;5091118;28;20499;-68
2021/08/09 04:59:34;;;;;;;6.25;1.58;;;;;;;30.24;46.42;100990.66;5090924;28;20040;-69
2021/08/09 05:02:01;;;;;;;3.92;1.45;;;;;;;30.38;46.11;100993.41;5092545;28;20044;-68
2021/08/09 05:04:29;;;;;;;2.80;1.13;;;;;;;30.49;45.31;100990.88;5090557;28;20043;-67
2021/08/09 05:06:57;;;;;;;3.38;1.25;;;;;;;30.66;45.23;100997.97;5092637;28;20092;-69
2021/08/09 05:09:26;;;;;;;8.45;1.20;;;;;;;30.77;44.82;100990.88;5092114;28;20097;-69
2021/08/09 05:11:53;;;;;;;7.43;1.85;;;;;;;30.83;44.71;100989.59;5091050;28;20036;-69
2021/08/09 05:14:21;;;;;;;5.55;1.27;;;;;;;31.00;44.54;100989.34;5090908;28;20067;-68
2021/08/09 05:16:48;;;;;;;4.40;1.30;;;;;;;31.11;44.24;100994.16;5090032;28;20042;-69
2021/08/09 05:19:15;;;;;;;9.32;1.85;;;;;;;31.30;43.88;101002.00;5090838;28;20067;-69
2021/08/09 05:21:43;;;;;;;3.20;1.25;;;;;;;31.42;43.81;101001.16;5090598;28;20039;-69
2021/08/09 05:24:11;;;;;;;9.07;1.42;;;;;;;31.55;43.68;100983.84;5090551;28;20496;-71
2021/08/09 05:26:40;;;;;;;3.50;1.20;;;;;;;31.73;43.64;101003.59;5089709;28;20044;-69
2021/08/09 05:29:07;;;;;;;3.42;0.98;;;;;;;31.96;43.01;101008.34;5090066;28;20139;-71
2021/08/09 05:31:35;;;;;;;4.38;1.17;;;;;;;32.20;42.96;101013.09;5090412;28;20051;-68
2021/08/09 05:34:03;;;;;;;4.65;1.45;;;;;;;32.43;42.63;101010.47;5090857;28;20518;-71
2021/08/09 05:36:31;;;;;;;2.13;1.10;;;;;;;32.51;42.08;100998.09;5089812;28;20043;-69
2021/08/09 05:39:00;;;;;;;4.85;1.30;;;;;;;32.54;42.77;101011.56;5090684;28;20058;-68
2021/08/09 05:41:29;;;;;;;5.53;1.20;;;;;;;32.75;42.12;100993.63;5090620;28;20616;-69
2021/08/09 05:43:58;;;;;;;5.53;1.20;;;;;;;32.82;41.85;100998.53;5090433;28;20047;-69
2021/08/09 05:46:25;;;;;;;4.03;1.45;;;;;;;32.94;42.26;101007.72;5089870;28;20063;-69
2021/08/09 05:48:53;;;;;;;10.68;1.30;;;;;;;33.15;42.05;101010.69;5089928;28;20032;-68
2021/08/09 05:51:20;;;;;;;5.78;1.23;;;;;;;33.15;41.43;101002.47;5093087;28;20040;-69
2021/08/09 05:53:48;;;;;;;5.15;1.30;;;;;;;33.30;41.56;101006.84;5090103;28;20024;-68
2021/08/09 05:56:15;;;;;;;5.20;1.20;;;;;;;33.46;41.22;101006.56;5090400;28;20040;-68
2021/08/09 05:58:43;;;;;;;4.10;0.98;;;;;;;33.63;41.04;101019.81;5089863;28;20040;-68
2021/08/09 06:01:12;;;;;;;3.30;1.17;;;;;;;33.83;40.28;101005.50;5089072;28;20073;-68
2021/08/09 06:03:41;;;;;;;4.38;1.30;;;;;;;33.86;40.43;101002.53;5090110;28;20115;-68
2021/08/09 06:06:09;;;;;;;4.85;1.48;;;;;;;33.92;40.25;101002.06;5089830;28;20062;-70
2021/08/09 06:08:37;;;;;;;7.45;1.27;;;;;;;33.97;40.19;101009.91;5089664;28;20404;-68
2021/08/09 06:11:04;;;;;;;5.80;1.40;;;;;;;34.11;40.13;101000.59;5088946;28;20036;-68
2021/08/09 06:13:32;;;;;;;4.13;1.05;;;;;;;34.18;40.12;101010.97;5089110;28;20121;-68
2021/08/09 06:16:00;;;;;;;5.30;1.63;;;;;;;34.33;40.07;101017.16;5093554;28;20100;-67
2021/08/09 06:18:29;;;;;;;2.78;1.08;;;;;;;34.56;39.59;101024.38;5092886;28;20032;-69
2021/08/09 06:20:56;;;;;;;5.68;1.10;;;;;;;34.75;39.26;101019.19;5102415;28;20059;-69
2021/08/09 06:23:24;;;;;;;7.13;1.40;;;;;;;34.99;38.41;101018.16;5089496;28;20135;-68
2021/08/09 06:25:54;;;;;;;3.85;1.30;;;;;;;35.06;38.07;101013.91;5089788;28;20071;-69
2021/08/09 06:28:21;;;;;;;4.93;1.30;;;;;;;35.15;37.54;101025.00;5105812;28;20051;-72
2021/08/09 06:30:49;;;;;;;7.55;1.33;;;;;;;35.37;37.50;101028.75;5108453;28;20036;-71
2021/08/09 06:33:17;;;;;;;4.97;1.00;;;;;;;35.42;37.19;101037.47;5090282;28;20113;-70
2021/08/09 06:35:46;;;;;;;5.97;1.42;;;;;;;35.23;37.30;101037.25;5088411;28;20074;-70
2021/08/09 06:38:14;;;;;;;9.35;1.10;;;;;;;35.18;37.41;101032.97;5092802;28;20036;-70
2021/08/09 06:40:44;;;;;;;4.63;1.60;;;;;;;35.43;36.85;101039.22;5089297;28;20035;-69
2021/08/09 06:43:12;;;;;;;4.80;1.00;;;;;;;35.40;36.88;101039.47;5123500;28;20043;-70
2021/08/09 06:45:43;;;;;;;3.05;0.95;;;;;;;35.50;36.61;101034.94;5107779;28;20040;-69
2021/08/09 06:48:12;;;;;;;3.58;1.10;;;;;;;35.62;36.27;101047.66;5104856;28;20036;-69
2021/08/09 06:50:40;;;;;;;4.28;1.25;;;;;;;35.58;35.97;101047.00;5096431;28;20040;-68
2021/08/09 06:53:11;;;;;;;5.38;1.27;;;;;;;35.60;36.08;101046.00;5077356;28;20041;-70
2021/08/09 06:55:38;;;;;;;4.45;1.25;;;;;;;35.63;35.91;101051.28;5073014;28;20067;-69
2021/08/09 06:58:06;;;;;;;2.80;1.20;;;;;;;35.79;35.94;101054.47;5073674;28;20041;-69
2021/08/09 07:00:33;;;;;;;2.70;1.10;;;;;;;35.75;35.42;101064.00;5094866;28;20060;-68
2021/08/09 07:03:07;;;;;;;4.43;1.08;;;;;;;35.85;34.92;101068.56;5111814;27;20040;-68
2021/08/09 07:05:41;;;;;;;3.50;1.23;;;;;;;35.87;34.80;101065.69;5103019;27;20457;-69
2021/08/09 07:08:10;;;;;;;6.00;1.25;;;;;;;36.07;34.92;101073.09;5093394;28;20036;-70
2021/08/09 07:10:38;;;;;;;5.20;1.10;;;;;;;36.15;34.56;101070.56;5090088;28;20147;-69
2021/08/09 07:13:06;;;;;;;3.60;1.30;;;;;;;35.99;34.54;101075.63;5082370;28;20518;-68
2021/08/09 07:15:34;;;;;;;7.50;1.52;;;;;;;35.85;34.42;101085.06;5100399;28;20510;-68
2021/08/09 07:18:02;;;;;;;4.05;1.05;;;;;;;35.80;33.69;101083.72;5077839;28;20040;-68
2021/08/09 07:20:30;;;;;;;1.80;0.98;;;;;;;35.69;33.36;101076.38;5087460;28;20093;-68
2021/08/09 07:22:57;;;;;;;3.28;1.20;;;;;;;35.86;33.26;101077.69;5111074;28;20050;-69
2021/08/09 07:25:27;;;;;;;3.53;0.98;;;;;;;36.08;32.95;101082.22;5113026;27;20036;-70
2021/08/09 07:27:55;;;;;;;4.03;0.90;;;;;;;36.28;32.29;101078.66;5111069;27;20048;-69
2021/08/09 07:30:23;;;;;;;3.20;0.93;;;;;;;36.40;31.95;101077.56;5111808;28;20036;-69
2021/08/09 07:32:51;;;;;;;4.22;1.30;;;;;;;36.54;31.67;101077.22;5076466;28;20047;-69
2021/08/09 07:35:18;;;;;;;3.58;1.30;;;;;;;36.49;31.35;101079.53;5079365;28;20135;-68
2021/08/09 07:37:46;;;;;;;5.18;1.00;;;;;;;36.23;31.22;101078.19;5089499;28;20079;-70
2021/08/09 07:40:14;;;;;;;5.32;1.08;;;;;;;35.97;31.02;101077.66;5092556;28;20043;-68
2021/08/09 07:42:44;;;;;;;3.28;1.00;;;;;;;36.08;31.27;101080.34;5091253;28;20118;-69
2021/08/09 07:45:13;;;;;;;3.97;1.08;;;;;;;36.01;31.46;101081.88;5091458;28;20473;-68
2021/08/09 07:47:40;;;;;;;4.07;1.30;;;;;;;36.30;31.27;101088.50;5084819;28;20511;-68
2021/08/09 07:50:09;;;;;;;2.92;1.08;;;;;;;36.52;30.29;101081.13;5090126;28;20044;-68
2021/08/09 07:52:36;;;;;;;3.72;1.30;;;;;;;36.68;30.34;101084.31;5085961;28;20036;-69
2021/08/09 07:55:05;;;;;;;2.42;1.00;;;;;;;37.03;30.22;101079.22;5091186;28;20064;-68
2021/08/09 07:57:32;;;;;;;1.77;0.88;;;;;;;37.23;29.65;101085.72;5090879;28;20063;-69
2021/08/09 08:00:01;;;;;;;4.35;1.10;;;;;;;37.26;29.87;101079.94;5089970;28;20128;-69
2021/08/09 08:02:30;;;;;;;2.90;0.90;;;;;;;37.24;29.69;101095.72;5106482;28;20118;-70
2021/08/09 08:04:58;;;;;;;3.00;1.30;;;;;;;37.34;29.11;101093.03;5093918;27;20122;-68
2021/08/09 08:07:26;;;;;;;3.20;0.90;;;;;;;37.37;29.45;101099.09;5092651;28;20036;-71
2021/08/09 08:09:53;;;;;;;1.42;0.63;;;;;;;37.46;28.42;101083.63;5092533;28;20047;-69
2021/08/09 08:12:21;;;;;;;2.08;0.90;;;;;;;37.42;28.89;101087.66;5101360;28;20070;-70
2021/08/09 08:14:49;;;;;;;2.47;0.90;;;;;;;37.48;28.58;101090.72;5091294;28;20480;-68
2021/08/09 08:17:18;;;;;;;5.55;1.17;;;;;;;37.60;28.15;101098.91;5089692;28;20044;-67
2021/08/09 08:19:45;;;;;;;4.40;1.40;;;;;;;37.72;28.57;101101.41;5088182;28;20044;-66
2021/08/09 08:22:12;;;;;;;2.95;1.20;;;;;;;37.70;28.50;101106.19;5087956;28;20460;-69
2021/08/09 08:24:40;;;;;;;3.28;1.30;;;;;;;37.65;28.72;101104.88;5090724;28;20047;-68
2021/08/09 08:27:08;;;;;;;3.08;1.02;;;;;;;37.81;28.38;101106.03;5089727;28;20052;-68
2021/08/09 08:29:36;;;;;;;4.07;0.90;;;;;;;37.83;28.27;101115.06;5089874;28;20443;-67
2021/08/09 08:32:04;;;;;;;2.42;0.88;;;;;;;37.54;28.53;101111.34;5091571;28;20044;-67
2021/08/09 08:34:33;;;;;;;3.25;1.20;;;;;;;37.63;28.43;101104.13;5089391;28;20036;-67
2021/08/09 08:37:00;;;;;;;2.83;1.30;;;;;;;37.84;27.59;101110.41;5091354;28;20560;-68
2021/08/09 08:39:29;;;;;;;3.55;1.00;;;;;;;37.86;27.61;101101.00;5091061;28;20048;-66
2021/08/09 08:41:58;;;;;;;1.95;0.80;;;;;;;37.94;27.34;101099.41;5090969;28;20048;-67
2021/08/09 08:44:26;;;;;;;4.28;1.35;;;;;;;37.99;27.22;101106.22;5090957;28;20487;-67
2021/08/09 08:46:55;;;;;;;4.78;1.15;;;;;;;38.11;27.15;101110.59;5090568;28;20044;-67
2021/08/09 08:49:23;;;;;;;4.60;1.13;;;;;;;38.04;27.47;101105.81;5090228;28;20033;-67
2021/08/09 08:51:52;;;;;;;3.88;1.20;;;;;;;37.97;27.56;101111.00;5089661;28;20067;-67
2021/08/09 08:54:20;;;;;;;2.55;1.02;;;;;;;37.95;27.50;101109.38;5089982;28;20044;-67
2021/08/09 08:56:48;;;;;;;2.13;1.05;;;;;;;37.90;28.17;101102.44;5090464;28;20058;-66
2021/08/09 08:59:18;;;;;;;2.58;0.95;;;;;;;37.92;27.43;101099.53;5090980;28;20569;-66
2021/08/09 09:01:47;;;;;;;3.40;1.08;;;;;;;37.89;27.42;101108.09;5090328;28;20381;-67
2021/08/09 09:04:29;;;;;;;2.53;1.10;;;;;;;38.00;27.27;101096.06;5089962;28;20044;-67
2021/08/09 09:07:03;;;;;;;1.73;1.20;;;;;;;38.02;26.80;101113.31;5090788;28;20400;-67
2021/08/09 09:09:32;;;;;;;6.45;1.27;;;;;;;37.87;27.61;101111.00;5090608;28;20044;-67
2021/08/09 09:12:12;;;;;;;5.35;1.20;;;;;;;38.04;27.19;101114.09;5088887;28;20040;-67
2021/08/09 09:14:39;;;;;;;3.65;1.23;;;;;;;38.18;27.38;101110.91;5089102;28;20032;-67
2021/08/09 09:17:07;;;;;;;3.20;1.42;;;;;;;38.15;28.32;101124.97;5081062;28;20499;-66
2021/08/09 09:19:38;;;;;;;5.40;1.10;;;;;;;38.04;28.20;101128.75;5088348;28;20047;-68
2021/08/09 09:22:09;;;;;;;4.28;1.30;;;;;;;38.04;28.43;101119.59;5089453;28;20062;-67
2021/08/09 09:24:48;;;;;;;3.90;1.17;;;;;;;37.94;28.34;101138.00;5088864;28;20048;-67
2021/08/09 09:27:28;;;;;;;3.00;1.10;;;;;;;37.74;28.27;101120.56;5088697;28;20040;-68
2021/08/09 09:29:56;;;;;;;3.17;1.30;;;;;;;37.71;28.01;101118.97;5089827;28;20126;-68
2021/08/09 09:32:24;;;;;;;6.53;1.33;;;;;;;37.83;27.00;101120.56;5089199;28;20123;-69
2021/08/09 09:34:53;;;;;;;4.03;1.00;;;;;;;37.83;27.05;101119.69;5089363;28;20115;-68
2021/08/09 09:37:28;;;;;;;2.60;1.23;;;;;;;37.96;27.20;101123.03;5090286;28;20056;-68
2021/08/09 09:40:05;;;;;;;1.98;0.80;;;;;;;38.18;26.88;101130.22;5089275;28;20052;-68
2021/08/09 09:42:35;;;;;;;4.13;1.30;;;;;;;38.04;28.14;101127.88;5089971;28;20047;-68
2021/08/09 09:45:20;;;;;;;4.43;1.20;;;;;;;38.01;29.50;101128.16;5089776;28;20568;-68
2021/08/09 09:48:02;;;;;;;4.97;1.00;;;;;;;37.91;29.60;101114.34;5090209;28;20036;-69
2021/08/09 09:50:30;;;;;;;5.60;1.17;;;;;;;37.80;29.52;101128.25;5087440;28;20047;-69
2021/08/09 09:53:14;;;;;;;6.68;1.23;;;;;;;37.74;29.71;101109.53;5089885;28;20072;-68
2021/08/09 09:55:43;;;;;;;5.95;1.27;;;;;;;37.81;29.63;101128.09;5089202;28;20044;-69
2021/08/09 09:58:11;;;;;;;2.80;0.95;;;;;;;37.70;29.57;101125.47;5089355;28;20058;-69
2021/08/09 10:00:39;;;;;;;5.07;1.58;;;;;;;37.72;29.39;101123.47;5089848;28;20086;-69
2021/08/09 10:03:06;;;;;;;3.80;1.08;;;;;;;37.55;28.69;101134.28;5088800;28;20145;-69
2021/08/09 10:05:38;;;;;;;5.95;1.27;;;;;;;37.43;28.76;101136.25;5088795;28;20071;-67
2021/08/09 10:08:10;;;;;;;2.72;1.10;;;;;;;37.58;28.82;101145.03;5089486;28;20119;-68
2021/08/09 10:10:39;;;;;;;5.63;1.48;;;;;;;37.55;29.64;101145.31;5088071;28;20032;-68
2021/08/09 10:13:07;;;;;;;4.10;1.52;;;;;;;37.29;30.38;101139.38;5085142;28;20504;-68
2021/08/09 10:15:34;;;;;;;2.88;1.30;;;;;;;37.19;30.74;101136.59;5084957;28;20094;-67
2021/08/09 10:18:03;;;;;;;5.32;1.23;;;;;;;36.90;30.66;101139.19;5075757;28;20040;-67
2021/08/09 10:20:31;;;;;;;3.83;1.45;;;;;;;36.87;31.10;101135.84;5084682;28;20044;-71
2021/08/09 10:23:00;;;;;;;6.18;1.30;;;;;;;36.86;32.06;101136.84;5089797;28;20440;-70
2021/08/09 10:25:48;;;;;;;7.22;1.25;;;;;;;37.05;31.85;101132.31;5092260;28;20447;-69
2021/08/09 10:28:16;;;;;;;3.00;1.30;;;;;;;36.99;32.06;101132.84;5090290;28;20609;-68
2021/08/09 10:30:44;;;;;;;5.00;1.50;;;;;;;36.91;31.94;101129.03;5093368;28;20544;-67
2021/08/09 10:33:11;;;;;;;4.72;1.10;;;;;;;36.79;31.78;101136.50;5086484;28;20071;-67
2021/08/09 10:36:06;;;;;;;3.97;1.02;;;;;;;36.65;30.94;101128.59;5083250;28;20435;-68
2021/08/09 10:38:44;;;;;;;7.82;1.38;;;;;;;36.45;30.87;101132.19;5083911;28;20389;-67
2021/08/09 10:41:31;;;;;;;3.33;1.23;;;;;;;36.53;30.62;101146.16;5091009;28;20044;-69
2021/08/09 10:44:21;;;;;;;7.40;1.33;;;;;;;36.52;29.98;101138.91;5091279;28;20682;-68
2021/08/09 10:46:49;;;;;;;5.15;1.23;;;;;;;36.55;30.07;101135.91;5092794;28;20032;-68
2021/08/09 10:49:56;;;;;;;5.82;1.15;;;;;;;36.68;29.04;101131.09;5091116;28;20032;-68
2021/08/09 10:52:46;;;;;;;4.53;1.13;;;;;;;36.48;28.67;101129.19;5093487;28;20040;-69
2021/08/09 10:55:44;;;;;;;3.42;0.90;;;;;;;36.42;27.35;101133.34;5073048;28;20044;-67
2021/08/09 10:58:56;;;;;;;3.17;1.23;;;;;;;36.45;27.97;101135.81;5088114;28;20048;-68
2021/08/09 11:01:24;;;;;;;4.75;1.30;;;;;;;36.31;28.41;101139.75;5088171;28;20502;-68
2021/08/09 11:04:16;;;;;;;2.72;1.20;;;;;;;36.39;28.26;101138.22;5092817;28;20055;-68
2021/08/09 11:06:52;;;;;;;7.93;1.10;;;;;;;36.47;28.98;101141.19;5083461;28;20058;-68
2021/08/09 11:09:52;;;;;;;3.55;1.15;;;;;;;36.68;28.81;101145.72;5088452;28;20040;-68
2021/08/09 11:12:25;;;;;;;4.63;1.10;;;;;;;36.74;28.41;101138.81;5086288;28;20514;-75
2021/08/09 11:15:19;;;;;;;3.97;1.20;;;;;;;36.79;28.05;101152.16;5091432;28;20047;-74
2021/08/09 11:18:00;;;;;;;3.40;1.05;;;;;;;36.68;28.29;101139.34;5083469;28;20121;-74
2021/08/09 11:20:33;;;;;;;4.10;1.20;;;;;;;36.45;27.53;101143.19;5089231;28;20044;-76
2021/08/09 11:23:04;;;;;;;8.50;1.30;;;;;;;36.47;26.88;101132.94;5091703;28;20044;-74
2021/08/09 11:25:34;;;;;;;3.60;1.23;;;;;;;36.58;26.64;101141.13;5091566;28;20067;-74
2021/08/09 11:28:05;;;;;;;3.65;1.10;;;;;;;36.52;25.82;101138.91;5092518;28;20097;-71
2021/08/09 11:30:41;;;;;;;8.60;1.17;;;;;;;36.45;25.38;101144.06;5092223;28;20036;-67
2021/08/09 11:33:25;;;;;;;5.32;1.10;;;;;;;36.60;25.33;101142.75;5086841;28;20051;-69
2021/08/09 11:35:53;;;;;;;7.60;1.15;;;;;;;36.64;25.73;101144.22;5092480;28;20071;-69
2021/08/09 11:38:21;;;;;;;5.68;1.50;;;;;;;36.99;26.58;101141.13;5092554;28;20543;-68